createdAt,value
2023-03-06T00:00:59.599Z,84.39
2023-03-06T00:04:23.032Z,84.55
2023-03-06T00:08:00.626Z,84.86
2023-03-06T00:11:38.359Z,85.03
2023-03-06T00:15:36.211Z,84.92
2023-03-06T00:19:00.609Z,84.65
2023-03-06T00:22:39.223Z,84.96
2023-03-06T00:26:16.008Z,85.35
2023-03-06T00:29:58.235Z,85.25
2023-03-06T00:33:31.472Z,85.25
2023-03-06T00:37:27.813Z,85.26
2023-03-06T00:40:51.438Z,85.30
2023-03-06T00:44:29.029Z,85.36
2023-03-06T00:48:27.370Z,85.50
2023-03-06T00:52:13.979Z,85.70
2023-03-06T00:55:37.723Z,86.02
2023-03-06T00:59:13.735Z,85.83
2023-03-06T01:02:53.678Z,85.51
2023-03-06T01:06:29.067Z,85.62
2023-03-06T01:10:10.009Z,85.59
2023-03-06T01:14:05.814Z,85.39
2023-03-06T01:17:28.092Z,85.18
2023-03-06T01:21:08.077Z,85.23
2023-03-06T01:24:44.696Z,85.42
2023-03-06T01:28:20.975Z,85.82
2023-03-06T01:31:58.811Z,85.92
2023-03-06T01:35:40.960Z,86.21
2023-03-06T01:39:14.303Z,86.32
2023-03-06T01:42:51.620Z,86.09
2023-03-06T01:46:30.275Z,85.89
2023-03-06T01:50:11.957Z,85.79
2023-03-06T01:53:47.968Z,85.80
2023-03-06T01:57:44.740Z,85.57
2023-03-06T02:01:26.659Z,85.51
2023-03-06T02:04:51.207Z,85.64
2023-03-06T02:08:29.824Z,85.67
2023-03-06T02:12:26.788Z,85.67
2023-03-06T02:15:50.857Z,85.90
2023-03-06T02:20:09.954Z,85.99
2023-03-06T02:23:39.536Z,86.23
2023-03-06T02:27:14.332Z,85.56
2023-03-06T02:31:07.411Z,85.81
2023-03-06T02:34:55.837Z,85.74
2023-03-06T02:38:21.629Z,85.72
2023-03-06T02:41:56.206Z,85.65
2023-03-06T02:45:53.133Z,85.41
2023-03-06T02:49:15.636Z,85.51
2023-03-06T02:52:54.964Z,85.65
2023-03-06T02:56:30.931Z,85.64
2023-03-06T03:00:10.041Z,86.17
2023-03-06T03:03:46.072Z,85.76
2023-03-06T03:07:23.927Z,86.15
2023-03-06T03:11:02.340Z,86.21
2023-03-06T03:14:39.317Z,86.01
2023-03-06T03:18:36.012Z,85.91
2023-03-06T03:21:59.281Z,85.77
2023-03-06T03:25:55.473Z,85.83
2023-03-06T03:29:19.337Z,85.60
2023-03-06T03:33:14.952Z,85.63
2023-03-06T03:36:58.368Z,85.74
2023-03-06T03:40:28.705Z,86.31
2023-03-06T03:44:18.643Z,86.60
2023-03-06T03:47:41.559Z,86.39
2023-03-06T03:51:38.317Z,86.28
2023-03-06T03:55:00.726Z,86.19
2023-03-06T03:58:57.406Z,86.02
2023-03-06T04:02:42.086Z,85.75
2023-03-06T04:06:33.376Z,85.60
2023-03-06T04:10:18.184Z,85.55
2023-03-06T04:13:42.423Z,85.17
2023-03-06T04:17:18.478Z,85.37
2023-03-06T04:20:56.476Z,85.53
2023-03-06T04:24:35.064Z,85.63
2023-03-06T04:28:30.544Z,86.17
2023-03-06T04:32:14.448Z,85.72
2023-03-06T04:35:56.152Z,85.95
2023-03-06T04:39:41.026Z,85.98
2023-03-06T04:43:24.678Z,86.10
2023-03-06T04:46:51.299Z,86.10
2023-03-06T04:50:28.406Z,86.36
2023-03-06T04:54:07.920Z,86.01
2023-03-06T04:57:44.207Z,86.13
2023-03-06T05:01:38.894Z,86.25
2023-03-06T05:05:20.486Z,86.26
2023-03-06T05:08:42.817Z,86.27
2023-03-06T05:12:20.659Z,86.46
2023-03-06T05:16:20.255Z,86.82
2023-03-06T05:19:43.535Z,87.05
2023-03-06T05:23:20.287Z,87.42
2023-03-06T05:26:58.535Z,87.51
2023-03-06T05:30:54.830Z,87.64
2023-03-06T05:34:17.443Z,87.45
2023-03-06T05:37:55.118Z,87.42
2023-03-06T05:41:51.641Z,87.47
2023-03-06T05:45:34.667Z,87.34
2023-03-06T05:48:57.954Z,87.19
2023-03-06T05:52:35.003Z,87.45
2023-03-06T05:56:13.837Z,87.46
2023-03-06T06:00:11.988Z,87.83
2023-03-06T06:03:56.467Z,88.07
2023-03-06T06:07:38.145Z,88.10
2023-03-06T06:11:00.623Z,88.08
2023-03-06T06:14:38.221Z,88.18
2023-03-06T06:18:18.723Z,88.03
2023-03-06T06:21:54.199Z,88.28
2023-03-06T06:25:33.215Z,88.10
2023-03-06T06:29:29.842Z,88.32
2023-03-06T06:33:11.114Z,88.00
2023-03-06T06:36:53.896Z,88.34
2023-03-06T06:40:35.056Z,88.41
2023-03-06T06:43:59.012Z,88.65
2023-03-06T06:47:34.861Z,88.73
2023-03-06T06:51:12.584Z,88.78
2023-03-06T06:55:13.132Z,88.82
2023-03-06T06:59:01.319Z,88.55
2023-03-06T07:02:33.184Z,88.41
2023-03-06T07:06:31.195Z,88.47
2023-03-06T07:09:55.722Z,88.35
2023-03-06T07:13:30.863Z,88.42
2023-03-06T07:17:09.792Z,88.48
2023-03-06T07:20:46.121Z,88.73
2023-03-06T07:24:24.005Z,88.68
2023-03-06T07:28:01.859Z,88.70
2023-03-06T07:31:42.090Z,88.78
2023-03-06T07:35:37.622Z,88.52
2023-03-06T07:39:00.808Z,88.63
2023-03-06T07:42:38.571Z,88.64
2023-03-06T07:46:16.265Z,88.67
2023-03-06T07:49:57.185Z,88.66
2023-03-06T07:53:32.603Z,88.47
2023-03-06T07:57:30.609Z,88.48
2023-03-06T08:01:19.646Z,88.42
2023-03-06T08:05:03.576Z,88.13
2023-03-06T08:08:29.424Z,88.09
2023-03-06T08:12:07.119Z,88.34
2023-03-06T08:15:49.580Z,88.50
2023-03-06T08:19:40.070Z,88.44
2023-03-06T08:23:04.389Z,88.26
2023-03-06T08:26:40.613Z,88.06
2023-03-06T08:30:19.658Z,87.99
2023-03-06T08:33:59.109Z,87.39
2023-03-06T08:37:33.973Z,87.05
2023-03-06T08:41:31.064Z,87.28
2023-03-06T08:44:54.196Z,87.04
2023-03-06T08:48:50.787Z,87.44
2023-03-06T08:52:32.032Z,86.96
2023-03-06T08:56:22.680Z,86.77
2023-03-06T08:59:44.777Z,86.08
2023-03-06T09:03:25.627Z,85.36
2023-03-06T09:07:00.504Z,85.46
2023-03-06T09:10:46.699Z,85.62
2023-03-06T09:14:15.755Z,85.11
2023-03-06T09:17:54.469Z,85.01
2023-03-06T09:21:49.816Z,84.47
2023-03-06T09:25:13.937Z,83.14
2023-03-06T09:28:52.094Z,82.85
2023-03-06T09:32:46.380Z,83.65
2023-03-06T09:36:14.290Z,83.03
2023-03-06T09:40:07.602Z,82.27
2023-03-06T09:44:04.285Z,82.26
2023-03-06T09:48:04.910Z,81.61
2023-03-06T09:51:36.966Z,82.46
2023-03-06T09:55:29.765Z,81.96
2023-03-06T09:59:16.733Z,81.31
2023-03-06T10:02:44.956Z,81.95
2023-03-06T10:06:49.559Z,81.15
2023-03-06T10:10:20.746Z,79.94
2023-03-06T10:14:12.659Z,79.58
2023-03-06T10:17:57.363Z,79.11
2023-03-06T10:21:40.683Z,78.92
2023-03-06T10:25:28.027Z,78.63
2023-03-06T10:29:00.988Z,79.27
2023-03-06T10:32:57.937Z,78.55
2023-03-06T10:36:41.724Z,78.07
2023-03-06T10:40:35.961Z,77.74
2023-03-06T10:44:04.898Z,76.92
2023-03-06T10:48:11.296Z,76.78
2023-03-06T10:51:35.633Z,77.18
2023-03-06T10:55:32.276Z,76.70
2023-03-06T10:59:18.076Z,75.54
2023-03-06T11:02:41.246Z,75.33
2023-03-06T11:06:39.824Z,75.00
2023-03-06T11:10:22.985Z,75.70
2023-03-06T11:14:13.909Z,74.36
2023-03-06T11:18:23.603Z,73.85
2023-03-06T11:22:18.437Z,75.00
2023-03-06T11:25:44.305Z,75.26
2023-03-06T11:29:38.598Z,74.81
2023-03-06T11:33:12.517Z,73.33
2023-03-06T11:37:01.520Z,73.07
2023-03-06T11:40:59.102Z,72.11
2023-03-06T11:44:50.394Z,71.74
2023-03-06T11:48:13.538Z,70.08
2023-03-06T11:52:18.994Z,71.30
2023-03-06T11:55:58.147Z,70.22
2023-03-06T11:59:37.338Z,70.39
2023-03-06T12:03:24.352Z,69.89
2023-03-06T12:07:23.473Z,69.97
2023-03-06T12:11:01.551Z,69.54
2023-03-06T12:14:38.115Z,69.29
2023-03-06T12:18:36.891Z,68.88
2023-03-06T12:22:26.032Z,68.08
2023-03-06T12:26:09.088Z,69.00
2023-03-06T12:29:50.837Z,66.92
2023-03-06T12:33:40.262Z,66.82
2023-03-06T12:37:09.712Z,66.36
2023-03-06T12:41:42.524Z,64.05
2023-03-06T12:45:29.436Z,64.41
2023-03-06T12:49:31.416Z,63.94
2023-03-06T12:52:59.075Z,64.39
2023-03-06T12:56:34.416Z,63.45
2023-03-06T13:00:37.600Z,62.84
2023-03-06T13:04:38.284Z,61.71
2023-03-06T13:08:19.076Z,62.98
2023-03-06T13:12:13.398Z,62.83
2023-03-06T13:16:15.024Z,62.37
2023-03-06T13:19:37.825Z,62.80
2023-03-06T13:23:30.819Z,62.84
2023-03-06T13:26:59.634Z,62.11
2023-03-06T13:30:47.239Z,61.22
2023-03-06T13:34:37.540Z,62.76
2023-03-06T13:38:32.813Z,63.28
2023-03-06T13:41:57.458Z,62.63
2023-03-06T13:45:44.696Z,63.20
2023-03-06T13:49:10.694Z,64.20
2023-03-06T13:53:48.890Z,63.94
2023-03-06T13:57:47.635Z,63.70
2023-03-06T14:01:53.934Z,64.02
2023-03-06T14:05:18.217Z,63.97
2023-03-06T14:08:54.529Z,64.73
2023-03-06T14:12:50.421Z,65.13
2023-03-06T14:16:32.663Z,65.30
2023-03-06T14:20:15.589Z,65.92
2023-03-06T14:23:48.336Z,66.40
2023-03-06T14:27:18.990Z,66.59
2023-03-06T14:30:57.455Z,67.00
2023-03-06T14:34:51.147Z,67.45
2023-03-06T14:38:14.823Z,67.37
2023-03-06T14:41:51.136Z,67.16
2023-03-06T14:45:50.429Z,67.56
2023-03-06T14:49:20.992Z,66.99
2023-03-06T14:53:24.678Z,66.67
2023-03-06T14:57:14.755Z,66.51
2023-03-06T15:01:00.683Z,66.59
2023-03-06T15:04:48.102Z,66.12
2023-03-06T15:08:19.025Z,66.25
2023-03-06T15:12:22.204Z,66.03
2023-03-06T15:15:57.828Z,67.76
2023-03-06T15:19:54.076Z,69.47
2023-03-06T15:23:17.997Z,71.46
2023-03-06T15:27:19.238Z,72.43
2023-03-06T15:30:41.421Z,73.54
2023-03-06T15:34:38.063Z,73.28
2023-03-06T15:38:44.715Z,73.85
2023-03-06T15:42:20.708Z,73.45
2023-03-06T15:46:05.698Z,73.41
2023-03-06T15:49:51.191Z,73.55
2023-03-06T15:53:13.852Z,73.51
2023-03-06T15:57:20.784Z,73.45
2023-03-06T16:00:45.896Z,73.62
2023-03-06T16:04:24.853Z,73.99
2023-03-06T16:08:19.629Z,73.89
2023-03-06T16:12:07.064Z,73.93
2023-03-06T16:15:40.773Z,73.94
2023-03-06T16:19:28.133Z,74.03
2023-03-06T16:22:53.215Z,73.66
2023-03-06T16:26:31.790Z,74.05
2023-03-06T16:30:07.067Z,73.88
2023-03-06T16:34:02.404Z,73.62
2023-03-06T16:37:26.217Z,73.74
2023-03-06T16:41:22.485Z,73.80
2023-03-06T16:45:03.877Z,73.96
2023-03-06T16:48:26.021Z,73.91
2023-03-06T16:52:04.745Z,74.10
2023-03-06T16:56:04.950Z,74.21
2023-03-06T16:59:29.388Z,74.13
2023-03-06T17:03:27.024Z,73.91
2023-03-06T17:06:54.385Z,73.89
2023-03-06T17:10:50.209Z,73.88
2023-03-06T17:14:15.039Z,74.05
2023-03-06T17:18:11.331Z,73.93
2023-03-06T17:21:57.449Z,73.79
2023-03-06T17:25:20.111Z,74.05
2023-03-06T17:28:57.899Z,74.23
2023-03-06T17:32:54.350Z,74.28
2023-03-06T17:36:35.546Z,74.40
2023-03-06T17:39:58.206Z,74.76
2023-03-06T17:43:37.461Z,74.62
2023-03-06T17:47:13.616Z,74.73
2023-03-06T17:51:00.611Z,74.66
2023-03-06T17:54:30.220Z,74.64
2023-03-06T17:58:27.128Z,74.35
2023-03-06T18:01:49.417Z,74.54
2023-03-06T18:05:46.010Z,74.54
2023-03-06T18:09:10.187Z,74.48
2023-03-06T18:12:46.192Z,74.53
2023-03-06T18:16:26.999Z,74.70
2023-03-06T18:20:01.409Z,74.77
2023-03-06T18:23:39.680Z,74.91
2023-03-06T18:27:16.792Z,75.40
2023-03-06T18:30:54.374Z,75.93
2023-03-06T18:34:32.503Z,76.34
2023-03-06T18:38:28.676Z,76.41
2023-03-06T18:41:54.098Z,76.41
2023-03-06T18:45:29.802Z,76.87
2023-03-06T18:49:29.501Z,76.47
2023-03-06T18:52:52.692Z,77.58
2023-03-06T18:56:30.682Z,77.76
2023-03-06T19:00:28.965Z,77.79
2023-03-06T19:03:51.432Z,77.70
2023-03-06T19:07:48.039Z,77.89
2023-03-06T19:11:15.131Z,78.39
2023-03-06T19:14:57.766Z,78.73
2023-03-06T19:18:47.100Z,78.58
2023-03-06T19:22:15.114Z,78.43
2023-03-06T19:26:12.470Z,78.65
2023-03-06T19:29:39.039Z,78.31
2023-03-06T19:33:15.551Z,78.20
2023-03-06T19:36:52.054Z,78.05
2023-03-06T19:40:29.294Z,78.29
2023-03-06T19:44:07.067Z,77.92
2023-03-06T19:47:44.684Z,78.25
2023-03-06T19:51:22.838Z,77.97
2023-03-06T19:55:00.170Z,77.91
2023-03-06T19:58:41.068Z,78.27
2023-03-06T20:02:35.892Z,78.90
2023-03-06T20:05:58.122Z,79.60
2023-03-06T20:09:35.899Z,79.51
2023-03-06T20:13:32.313Z,79.54
2023-03-06T20:16:54.676Z,79.32
2023-03-06T20:21:01.582Z,79.28
2023-03-06T20:24:25.950Z,79.13
2023-03-06T20:28:01.463Z,79.06
2023-03-06T20:31:42.283Z,79.18
2023-03-06T20:35:41.869Z,78.95
2023-03-06T20:39:11.246Z,78.97
2023-03-06T20:42:44.777Z,78.88
2023-03-06T20:46:23.028Z,78.77
2023-03-06T20:50:18.852Z,78.88
2023-03-06T20:54:01.525Z,79.15
2023-03-06T20:57:43.098Z,79.71
2023-03-06T21:01:05.566Z,79.89
2023-03-06T21:04:43.244Z,80.23
2023-03-06T21:08:21.034Z,80.26
2023-03-06T21:12:18.143Z,80.25
2023-03-06T21:15:42.351Z,80.33
2023-03-06T21:19:37.100Z,80.20
2023-03-06T21:23:18.444Z,80.03
2023-03-06T21:26:40.793Z,80.01
2023-03-06T21:30:37.371Z,80.02
2023-03-06T21:34:00.703Z,80.35
2023-03-06T21:37:37.681Z,80.59
2023-03-06T21:41:34.160Z,80.77
2023-03-06T21:44:56.922Z,80.83
2023-03-06T21:48:54.488Z,80.85
2023-03-06T21:52:17.180Z,80.87
2023-03-06T21:56:16.595Z,80.68
2023-03-06T21:59:39.023Z,80.57
2023-03-06T22:03:35.423Z,80.43
2023-03-06T22:06:58.083Z,80.72
2023-03-06T22:10:38.901Z,80.94
2023-03-06T22:14:14.925Z,81.19
2023-03-06T22:17:50.873Z,81.16
2023-03-06T22:21:47.949Z,81.38
2023-03-06T22:25:33.723Z,81.25
2023-03-06T22:28:56.637Z,80.97
2023-03-06T22:32:52.954Z,80.59
2023-03-06T22:36:34.137Z,80.61
2023-03-06T22:39:56.218Z,80.59
2023-03-06T22:43:35.019Z,80.56
2023-03-06T22:47:11.624Z,80.53
2023-03-06T22:50:49.509Z,80.61
2023-03-06T22:54:26.970Z,80.33
2023-03-06T22:58:23.683Z,80.25
2023-03-06T23:02:04.684Z,80.57
2023-03-06T23:05:29.378Z,80.91
2023-03-06T23:09:24.558Z,81.13
2023-03-06T23:13:25.250Z,80.90
2023-03-06T23:17:06.867Z,80.87
2023-03-06T23:20:48.673Z,81.22
2023-03-06T23:24:30.396Z,81.09
2023-03-06T23:28:08.196Z,80.78
2023-03-06T23:31:45.773Z,80.71
2023-03-06T23:35:23.529Z,80.59
2023-03-06T23:39:20.014Z,80.73
2023-03-06T23:42:42.205Z,80.70
2023-03-06T23:46:19.558Z,80.70
2023-03-06T23:49:57.376Z,81.00
2023-03-06T23:53:35.517Z,81.12
2023-03-06T23:57:12.924Z,81.18
